ADDS METAR Data INFO
IDs: Format: Raw Decoded Include TAF

Data at: 1509 UTC 23 Oct 2017

KMEM 231454Z 30012KT 10SM FEW013 SCT026 13/11 A3000 RMK AO2 RAE08 SLP159 P0011 60012 T01330111 51014
KMEM 231439Z 27008G16KT 10SM FEW009 BKN015 OVC027 12/11 A3000 RMK AO2 RAE08 P0011 T01220111
KMEM 231430Z 28011KT 10SM FEW005 OVC012 12/11 A3000 RMK AO2 RAE08 P0011 T01220111
KMEM 231412Z 29012KT 4SM BR BKN008 OVC012 12/11 A2999 RMK AO2 RAE08 CIG 004V010 P0011 T01170111
KMEM 231402Z 29010G18KT 2 1/2SM R36L/5500VP6000FT -RA BR BKN006 OVC013 12/11 A2999 RMK AO2 CIG 004V009 P0000 T01170111
KMEM 231354Z 29011KT 2SM R36L/6000VP6000FT -RA BR SCT005 OVC010 12/11 A2999 RMK AO2 RAB34 CIG 007V012 SLP155 P0001 T01170111
KMEM 231351Z 28012G17KT 2SM R36L/5500VP6000FT -RA BR SCT005 OVC010 12/11 A2999 RMK AO2 RAB34 CIG 007V012 P0001
KMEM 231254Z 29006KT 10SM SCT009 OVC014 12/11 A2996 RMK AO2 SLP146 T01220106 $
KMEM 231154Z 30007KT 10SM FEW009 BKN012 OVC028 12/11 A2996 RMK AO2 SLP144 60000 70019 T01220106 10139 20117 50004 $
KMEM 231130Z 30007KT 10SM FEW009 BKN014 OVC028 12/11 A2997 RMK AO2 T01220106 $
KMEM 231124Z 32007KT 10SM SCT011 BKN022 OVC028 12/11 A2996 RMK AO2 T01170106 $
KMEM 231054Z 32006KT 8SM BKN007 OVC012 12/11 A2997 RMK AO2 RAB27E39 CIG 005V009 SLP146 P0000 T01170111 $
KMEM 231037Z 30009KT 5SM -RA BR OVC008 12/11 A2997 RMK AO2 RAB27 CIG 005V013 P0000 T01170111 $
KMEM 230954Z 30010KT 10SM OVC012 12/11 A2996 RMK AO2 DZE47 SLP142 P0000 T01220111 $
KMEM 230933Z 32009KT 10SM -DZ OVC013 12/11 A2995 RMK AO2 P0000 T01220111 $
KMEM 230854Z 31011G18KT 5SM -DZ BR OVC007 12/12 A2995 RMK AO2 DZB50 CIG 005V012 SLP139 P0000 60000 T01220117 56012 $
KMEM 230822Z 31011KT 7SM BKN009 OVC014 13/12 A2995 RMK AO2 CIG 007V011 T01280117 $
KMEM 230801Z 31009KT 10SM BKN011 OVC019 13/12 A2995 RMK AO2 T01280117 $
KMEM 230754Z 31012KT 10SM BKN009 OVC014 13/12 A2996 RMK AO2 SLP142 T01280117 $
KMEM 230724Z 31010KT 10SM BKN008 OVC012 13/12 A2996 RMK AO2 T01330122 $
KMEM 230712Z 32009KT 10SM OVC010 13/12 A2996 RMK AO2 CIG 008V013 T01330122 $
KMEM 230654Z 32010KT 10SM OVC008 13/12 A2996 RMK AO2 DZE32 SLP145 P0000 T01330122 $
KMEM 230554Z 31010KT 7SM -DZ OVC007 14/13 A2998 RMK AO2 DZB33 CIG 004V011 SLP151 P0000 60001 T01390133 10178 20139 402280139 58002 $
KMEM 230516Z 29009KT 10SM BKN009 BKN012 OVC031 15/14 A2999 RMK AO2 T01500139 $
KMEM 230454Z 33004KT 10SM FEW008 SCT012 BKN030 14/13 A3000 RMK AO2 SLP155 T01440133 $
KMEM 230354Z 33005KT 10SM SCT008 BKN014 OVC024 15/14 A3000 RMK AO2 RAB37E48 SLP156 P0000 T01500139 $
KMEM 230337Z 33008KT 10SM -RA SCT008 OVC014 15/13 A3000 RMK AO2 RAB37 P0000 T01500133 $
KMEM 230318Z 31008KT 10SM OVC010 15/14 A3000 RMK AO2 T01500144 $
KMEM 230254Z 31007KT 10SM BKN008 OVC060 16/14 A2999 RMK AO2 SLP153 60001 T01560144 53003 $
KMEM 230209Z 33005KT 10SM BKN007 OVC060 16/15 A2998 RMK AO2 VCSH T01610150 $
KMEM 230154Z 32007KT 10SM OVC007 16/15 A2998 RMK AO2 RAE30 SLP149 VCSH P0000 T01560150 $
KMEM 230054Z 31011G18KT 6SM -RA BR OVC007 16/16 A2998 RMK AO2 RAE45B50 CIG 005V009 SLP150 P0001 T01610156 $
KMEM 230045Z 31012G21KT 9SM BKN007 OVC010 17/16 A2998 RMK AO2 RAE45 CIG 005V010 P0001 T01670156 $
KMEM 230028Z 28009KT 6SM -RA BR BKN010 OVC018 17/17 A2998 RMK AO2 CIG 006V012 P0001 T01720167 $
KMEM 222354Z 26007KT 7SM -RA FEW007 SCT013 OVC028 18/17 A2998 RMK AO2 SLP150 P0001 60017 T01780172 10217 20178 53002 $
KMEM 222326Z 26005KT 6SM -RA BR SCT007 BKN013 OVC037 18/17 A2997 RMK AO2 P0001 T01780172 $
KMEM 222254Z 27005KT 6SM -RA BR FEW008 BKN027 OVC035 18/17 A2996 RMK AO2 RAE02B18 SLP141 P0003 T01830172 $
KMEM 222154Z 26007KT 10SM -RA SCT007 BKN015 OVC030 18/17 A2996 RMK AO2 RAEMMB04 SLP142 P0008 T01830172 $
KMEM 222119Z 26003KT 3SM -RA BR SCT007 BKN015 OVC027 18/18 A2997 RMK AO2 RAEMMB04 P0006 T01830178 $
KMEM 222114Z 26005KT 2SM RA BR SCT008 BKN013 OVC024 18/18 A2997 RMK AO2 RAEMMB04 P0006 T01830178 $
KMEM 222103Z 25006KT 2SM R36L/5500VP6000FT BR BKN008 BKN013 OVC070 18/18 A2998 RMK AO2 SFC VIS 4 RAEMM P0002 T01830178 $
KMEM 222057Z 25009KT 2SM R36L/5500VP6000FT -RA SCT008 BKN013 OVC065 19/18 A2998 RMK AO2 SFC VIS 8 P0000 T01890178 $
KMEM 222054Z 26009KT 9SM -RA SCT008 BKN015 OVC065 19/18 A2998 RMK AO2 SLP148 P0003 60005 T01890178 55000 $
KMEM 222036Z 26009KT 6SM RA BR SCT008 BKN013 OVC110 19/19 A2998 RMK AO2 P0002 T01940189 $
KMEM 221954Z 22008KT 10SM -RA SCT015 SCT100 BKN120 22/20 A2996 RMK AO2 SLP142 P0001 T02170200 $
KMEM 221932Z 16009KT 10SM -RA SCT015 BKN039 BKN060 22/20 A2997 RMK AO2 P0001 T02170200 $
KMEM 221854Z 18009KT 10SM -RA SCT013 BKN065 OVC100 22/19 A2998 RMK AO2 RAE07B46 SLP148 P0001 T02170194 $
KMEM 221754Z 16010KT 10SM -RA BKN013 OVC090 22/19 A2998 RMK AO2 RAB26 SLP148 P0001 60001 T02170194 10217 20200 58012 $
KMEM 221714Z 17011G18KT 10SM BKN011 OVC070 21/19 A3000 RMK AO2 T02110189 $
KMEM 221705Z 17012KT 10SM SCT011 OVC070 22/19 A3000 RMK AO2 T02170194 $
KMEM 221654Z 15012KT 10SM FEW011 BKN024 OVC070 22/19 A3000 RMK AO2 SLP154 T02170194 $
KMEM 221554Z 20005KT 9SM OVC020 21/19 A3001 RMK AO2 RAE22B39E49 SLP160 P0000 T02060194 $
KMEM 221520Z 23005KT 8SM R36L/5500VP6000FT -RA BKN020 OVC033 20/19 A3001 RMK AO2 P0000 T02000189 $
KMEM 221454Z 23008KT 10SM R36L/6000VP6000FT -RA SCT018 BKN035 21/19 A3001 RMK AO2 RAB28 SLP160 P0000 60000 T02060189 53014 $
KMEM 221418Z 19011G17KT 10SM BKN039 BKN049 OVC060 21/18 A3000 RMK AO2 T02110178 $
KMEM 221354Z 16009KT 10SM FEW039 SCT047 BKN055 BKN150 21/18 A2999 RMK AO2 SLP150 T02110178 $
KMEM 221254Z 17011KT 10SM FEW060 FEW110 SCT250 20/18 A2999 RMK AO2 SLP153 T02000178 $
KMEM 221154Z 14010KT 10SM FEW060 FEW150 SCT250 21/18 A2997 RMK AO2 PRESFR SLP146 T02060178 10228 20206 58010 $
KMEM 221054Z 16007KT 10SM BKN170 BKN250 21/18 A3001 RMK AO2 SLP159 T02110178 $
KMEM 220954Z 16008KT 10SM SCT023 BKN160 OVC250 21/18 A3001 RMK AO2 SLP158 T02110178 $
KMEM 220854Z 15009KT 10SM FEW060 BKN150 OVC250 22/18 A3000 RMK AO2 SLP155 T02170178 56010 $
KMEM 220754Z 16013KT 10SM FEW075 BKN160 OVC250 23/18 A3000 RMK AO2 SLP155 T02280178 $
KMEM 220654Z 15011KT 10SM FEW055 BKN070 BKN180 OVC250 23/18 A3001 RMK AO2 SLP158 T02280178 $
KMEM 220554Z 16013G18KT 10SM BKN055 OVC250 22/18 A3003 RMK AO2 SLP165 T02220178 10244 20222 402780172 57010 $
KMEM 220454Z 15013KT 10SM SCT120 OVC250 23/17 A3003 RMK AO2 SLP166 T02280172 $
KMEM 220354Z 16012KT 10SM FEW075 SCT180 OVC250 23/17 A3006 RMK AO2 SLP175 T02280172 $